sensor_id;sensor_type;location;lat;lon;timestamp;P1;durP1;ratioP1;P2;durP2;ratioP2
34019;SDS011;20895;51.034;3.742;2023-04-24T00:00:53;20.63;;;12.35;;
34019;SDS011;20895;51.034;3.742;2023-04-24T00:03:21;18.23;;;14.45;;
34019;SDS011;20895;51.034;3.742;2023-04-24T00:05:47;15.77;;;12.50;;
34019;SDS011;20895;51.034;3.742;2023-04-24T00:08:12;23.50;;;13.93;;
34019;SDS011;20895;51.034;3.742;2023-04-24T00:10:37;15.38;;;13.20;;
34019;SDS011;20895;51.034;3.742;2023-04-24T00:13:03;17.08;;;12.15;;
34019;SDS011;20895;51.034;3.742;2023-04-24T00:15:28;19.92;;;12.13;;
34019;SDS011;20895;51.034;3.742;2023-04-24T00:17:53;13.85;;;10.02;;
34019;SDS011;20895;51.034;3.742;2023-04-24T00:20:19;14.70;;;12.48;;
34019;SDS011;20895;51.034;3.742;2023-04-24T00:22:44;13.57;;;10.98;;
34019;SDS011;20895;51.034;3.742;2023-04-24T00:25:10;18.15;;;11.63;;
34019;SDS011;20895;51.034;3.742;2023-04-24T00:27:35;14.68;;;11.30;;
34019;SDS011;20895;51.034;3.742;2023-04-24T00:30:02;15.65;;;11.85;;
34019;SDS011;20895;51.034;3.742;2023-04-24T00:32:27;17.20;;;11.00;;
34019;SDS011;20895;51.034;3.742;2023-04-24T00:34:53;12.18;;;10.88;;
34019;SDS011;20895;51.034;3.742;2023-04-24T00:37:18;13.48;;;11.60;;
34019;SDS011;20895;51.034;3.742;2023-04-24T00:39:43;12.35;;;9.90;;
34019;SDS011;20895;51.034;3.742;2023-04-24T00:42:08;13.02;;;9.45;;
34019;SDS011;20895;51.034;3.742;2023-04-24T00:44:34;9.60;;;8.60;;
34019;SDS011;20895;51.034;3.742;2023-04-24T00:46:59;8.43;;;7.53;;
34019;SDS011;20895;51.034;3.742;2023-04-24T00:49:25;10.38;;;8.70;;
34019;SDS011;20895;51.034;3.742;2023-04-24T00:51:51;11.73;;;9.45;;
34019;SDS011;20895;51.034;3.742;2023-04-24T00:54:16;13.95;;;10.05;;
34019;SDS011;20895;51.034;3.742;2023-04-24T00:56:42;13.27;;;10.15;;
34019;SDS011;20895;51.034;3.742;2023-04-24T00:59:07;11.88;;;10.40;;
34019;SDS011;20895;51.034;3.742;2023-04-24T01:01:33;13.63;;;10.02;;
34019;SDS011;20895;51.034;3.742;2023-04-24T01:03:58;12.98;;;10.20;;
34019;SDS011;20895;51.034;3.742;2023-04-24T01:06:23;10.27;;;8.60;;
34019;SDS011;20895;51.034;3.742;2023-04-24T01:08:52;9.55;;;8.35;;
34019;SDS011;20895;51.034;3.742;2023-04-24T01:11:17;10.00;;;8.95;;
34019;SDS011;20895;51.034;3.742;2023-04-24T01:13:42;11.00;;;9.15;;
34019;SDS011;20895;51.034;3.742;2023-04-24T01:16:08;10.75;;;8.38;;
34019;SDS011;20895;51.034;3.742;2023-04-24T01:18:33;8.65;;;7.20;;
34019;SDS011;20895;51.034;3.742;2023-04-24T01:20:59;13.25;;;8.00;;
34019;SDS011;20895;51.034;3.742;2023-04-24T01:23:25;9.13;;;7.03;;
34019;SDS011;20895;51.034;3.742;2023-04-24T01:25:50;11.63;;;8.10;;
34019;SDS011;20895;51.034;3.742;2023-04-24T01:28:16;10.82;;;7.35;;
34019;SDS011;20895;51.034;3.742;2023-04-24T01:30:42;9.40;;;8.38;;
34019;SDS011;20895;51.034;3.742;2023-04-24T01:33:07;9.50;;;7.63;;
34019;SDS011;20895;51.034;3.742;2023-04-24T01:35:33;9.18;;;7.30;;
34019;SDS011;20895;51.034;3.742;2023-04-24T01:37:58;11.32;;;8.57;;
34019;SDS011;20895;51.034;3.742;2023-04-24T01:40:23;10.77;;;8.38;;
34019;SDS011;20895;51.034;3.742;2023-04-24T01:42:49;11.35;;;8.60;;
34019;SDS011;20895;51.034;3.742;2023-04-24T01:45:14;9.50;;;8.07;;
34019;SDS011;20895;51.034;3.742;2023-04-24T01:47:39;11.73;;;9.07;;
34019;SDS011;20895;51.034;3.742;2023-04-24T01:50:05;12.15;;;9.70;;
34019;SDS011;20895;51.034;3.742;2023-04-24T01:52:31;10.32;;;8.55;;
34019;SDS011;20895;51.034;3.742;2023-04-24T01:55:01;14.57;;;10.50;;
34019;SDS011;20895;51.034;3.742;2023-04-24T01:57:27;11.18;;;9.75;;
34019;SDS011;20895;51.034;3.742;2023-04-24T01:59:52;12.60;;;10.68;;
34019;SDS011;20895;51.034;3.742;2023-04-24T02:02:18;14.52;;;10.13;;
34019;SDS011;20895;51.034;3.742;2023-04-24T02:04:43;13.70;;;11.05;;
34019;SDS011;20895;51.034;3.742;2023-04-24T02:07:08;12.02;;;10.82;;
34019;SDS011;20895;51.034;3.742;2023-04-24T02:09:34;12.48;;;9.77;;
34019;SDS011;20895;51.034;3.742;2023-04-24T02:11:59;11.70;;;10.50;;
34019;SDS011;20895;51.034;3.742;2023-04-24T02:14:25;12.52;;;11.25;;
34019;SDS011;20895;51.034;3.742;2023-04-24T02:16:50;12.88;;;10.45;;
34019;SDS011;20895;51.034;3.742;2023-04-24T02:19:15;12.20;;;10.23;;
34019;SDS011;20895;51.034;3.742;2023-04-24T02:21:41;14.50;;;12.07;;
34019;SDS011;20895;51.034;3.742;2023-04-24T02:24:06;15.25;;;12.23;;
34019;SDS011;20895;51.034;3.742;2023-04-24T02:26:31;14.40;;;11.80;;
34019;SDS011;20895;51.034;3.742;2023-04-24T02:28:57;14.35;;;12.85;;
34019;SDS011;20895;51.034;3.742;2023-04-24T02:31:22;14.77;;;13.23;;
34019;SDS011;20895;51.034;3.742;2023-04-24T02:33:47;16.45;;;13.07;;
34019;SDS011;20895;51.034;3.742;2023-04-24T02:36:12;13.60;;;11.60;;
34019;SDS011;20895;51.034;3.742;2023-04-24T02:38:38;14.38;;;12.10;;
34019;SDS011;20895;51.034;3.742;2023-04-24T02:41:04;15.85;;;13.20;;
34019;SDS011;20895;51.034;3.742;2023-04-24T02:43:31;14.45;;;12.77;;
34019;SDS011;20895;51.034;3.742;2023-04-24T02:45:56;13.88;;;12.18;;
34019;SDS011;20895;51.034;3.742;2023-04-24T02:48:21;13.05;;;11.63;;
34019;SDS011;20895;51.034;3.742;2023-04-24T02:50:47;14.98;;;11.63;;
34019;SDS011;20895;51.034;3.742;2023-04-24T02:53:12;12.52;;;11.05;;
34019;SDS011;20895;51.034;3.742;2023-04-24T02:55:37;10.13;;;8.70;;
34019;SDS011;20895;51.034;3.742;2023-04-24T02:58:03;11.80;;;8.18;;
34019;SDS011;20895;51.034;3.742;2023-04-24T03:00:28;8.90;;;4.93;;
34019;SDS011;20895;51.034;3.742;2023-04-24T03:02:53;10.20;;;6.45;;
34019;SDS011;20895;51.034;3.742;2023-04-24T03:05:19;6.63;;;4.13;;
34019;SDS011;20895;51.034;3.742;2023-04-24T03:07:44;10.02;;;5.00;;
34019;SDS011;20895;51.034;3.742;2023-04-24T03:10:10;11.30;;;4.30;;
34019;SDS011;20895;51.034;3.742;2023-04-24T03:12:35;9.98;;;4.32;;
34019;SDS011;20895;51.034;3.742;2023-04-24T03:15:01;7.18;;;4.32;;
34019;SDS011;20895;51.034;3.742;2023-04-24T03:17:26;8.55;;;4.35;;
34019;SDS011;20895;51.034;3.742;2023-04-24T03:19:51;12.57;;;4.85;;
34019;SDS011;20895;51.034;3.742;2023-04-24T03:22:16;6.43;;;4.72;;
34019;SDS011;20895;51.034;3.742;2023-04-24T03:24:42;8.55;;;5.28;;
34019;SDS011;20895;51.034;3.742;2023-04-24T03:27:07;7.65;;;5.28;;
34019;SDS011;20895;51.034;3.742;2023-04-24T03:29:32;7.43;;;5.07;;
34019;SDS011;20895;51.034;3.742;2023-04-24T03:31:57;11.55;;;6.63;;
34019;SDS011;20895;51.034;3.742;2023-04-24T03:34:23;11.48;;;6.50;;
34019;SDS011;20895;51.034;3.742;2023-04-24T03:36:48;10.55;;;6.25;;
34019;SDS011;20895;51.034;3.742;2023-04-24T03:39:13;13.32;;;7.32;;
34019;SDS011;20895;51.034;3.742;2023-04-24T03:41:38;9.68;;;6.63;;
34019;SDS011;20895;51.034;3.742;2023-04-24T03:44:04;28.52;;;11.10;;
34019;SDS011;20895;51.034;3.742;2023-04-24T03:46:29;10.40;;;7.45;;
34019;SDS011;20895;51.034;3.742;2023-04-24T03:48:54;12.32;;;9.35;;
34019;SDS011;20895;51.034;3.742;2023-04-24T03:51:20;12.30;;;7.57;;
34019;SDS011;20895;51.034;3.742;2023-04-24T03:53:45;16.48;;;9.90;;
34019;SDS011;20895;51.034;3.742;2023-04-24T03:56:10;14.05;;;9.52;;
34019;SDS011;20895;51.034;3.742;2023-04-24T03:58:36;14.75;;;9.07;;
34019;SDS011;20895;51.034;3.742;2023-04-24T04:01:01;19.23;;;11.48;;
34019;SDS011;20895;51.034;3.742;2023-04-24T04:03:27;14.35;;;10.05;;
34019;SDS011;20895;51.034;3.742;2023-04-24T04:05:52;19.25;;;11.50;;
34019;SDS011;20895;51.034;3.742;2023-04-24T04:08:19;19.25;;;11.02;;
34019;SDS011;20895;51.034;3.742;2023-04-24T04:10:44;17.25;;;10.57;;
34019;SDS011;20895;51.034;3.742;2023-04-24T04:13:09;10.90;;;7.32;;
34019;SDS011;20895;51.034;3.742;2023-04-24T04:15:35;14.23;;;10.80;;
34019;SDS011;20895;51.034;3.742;2023-04-24T04:18:00;16.20;;;11.02;;
34019;SDS011;20895;51.034;3.742;2023-04-24T04:20:26;15.45;;;11.02;;
34019;SDS011;20895;51.034;3.742;2023-04-24T04:22:51;18.92;;;9.82;;
34019;SDS011;20895;51.034;3.742;2023-04-24T04:25:16;17.60;;;9.68;;
34019;SDS011;20895;51.034;3.742;2023-04-24T04:27:44;12.50;;;9.88;;
34019;SDS011;20895;51.034;3.742;2023-04-24T04:30:09;15.60;;;10.18;;
34019;SDS011;20895;51.034;3.742;2023-04-24T04:32:34;16.58;;;9.68;;
34019;SDS011;20895;51.034;3.742;2023-04-24T04:35:00;18.17;;;10.70;;
34019;SDS011;20895;51.034;3.742;2023-04-24T04:37:32;16.20;;;11.82;;
34019;SDS011;20895;51.034;3.742;2023-04-24T04:39:58;14.38;;;10.35;;
34019;SDS011;20895;51.034;3.742;2023-04-24T04:42:24;16.75;;;11.48;;
34019;SDS011;20895;51.034;3.742;2023-04-24T04:44:49;13.98;;;9.85;;
34019;SDS011;20895;51.034;3.742;2023-04-24T04:47:15;18.52;;;10.32;;
34019;SDS011;20895;51.034;3.742;2023-04-24T04:49:41;11.57;;;8.75;;
34019;SDS011;20895;51.034;3.742;2023-04-24T04:52:06;18.40;;;11.00;;
34019;SDS011;20895;51.034;3.742;2023-04-24T04:54:31;18.92;;;10.85;;
34019;SDS011;20895;51.034;3.742;2023-04-24T04:56:57;11.30;;;8.90;;
34019;SDS011;20895;51.034;3.742;2023-04-24T04:59:22;17.45;;;10.43;;
34019;SDS011;20895;51.034;3.742;2023-04-24T05:01:47;18.92;;;9.55;;
34019;SDS011;20895;51.034;3.742;2023-04-24T05:04:13;16.00;;;11.20;;
34019;SDS011;20895;51.034;3.742;2023-04-24T05:06:38;15.50;;;11.10;;
34019;SDS011;20895;51.034;3.742;2023-04-24T05:09:03;16.00;;;10.43;;
34019;SDS011;20895;51.034;3.742;2023-04-24T05:11:28;15.60;;;10.32;;
34019;SDS011;20895;51.034;3.742;2023-04-24T05:13:54;17.58;;;10.90;;
34019;SDS011;20895;51.034;3.742;2023-04-24T05:16:20;16.58;;;9.60;;
34019;SDS011;20895;51.034;3.742;2023-04-24T05:18:45;19.77;;;11.15;;
34019;SDS011;20895;51.034;3.742;2023-04-24T05:21:10;14.60;;;9.45;;
34019;SDS011;20895;51.034;3.742;2023-04-24T05:23:36;15.32;;;10.80;;
34019;SDS011;20895;51.034;3.742;2023-04-24T05:26:01;19.92;;;11.85;;
34019;SDS011;20895;51.034;3.742;2023-04-24T05:28:26;18.05;;;11.73;;
34019;SDS011;20895;51.034;3.742;2023-04-24T05:30:55;17.85;;;13.68;;
34019;SDS011;20895;51.034;3.742;2023-04-24T05:33:21;19.48;;;12.63;;
34019;SDS011;20895;51.034;3.742;2023-04-24T05:35:47;20.55;;;11.95;;
34019;SDS011;20895;51.034;3.742;2023-04-24T05:38:12;20.20;;;11.02;;
34019;SDS011;20895;51.034;3.742;2023-04-24T05:40:38;18.98;;;11.85;;
34019;SDS011;20895;51.034;3.742;2023-04-24T05:43:03;17.48;;;12.98;;
34019;SDS011;20895;51.034;3.742;2023-04-24T05:45:28;17.20;;;11.23;;
34019;SDS011;20895;51.034;3.742;2023-04-24T05:47:53;15.60;;;10.13;;
34019;SDS011;20895;51.034;3.742;2023-04-24T05:50:20;22.45;;;13.32;;
34019;SDS011;20895;51.034;3.742;2023-04-24T05:52:45;19.25;;;13.35;;
34019;SDS011;20895;51.034;3.742;2023-04-24T05:55:10;22.25;;;12.70;;
34019;SDS011;20895;51.034;3.742;2023-04-24T05:57:35;18.67;;;12.25;;
34019;SDS011;20895;51.034;3.742;2023-04-24T06:00:01;18.10;;;14.27;;
34019;SDS011;20895;51.034;3.742;2023-04-24T06:02:26;18.98;;;13.38;;
34019;SDS011;20895;51.034;3.742;2023-04-24T06:04:52;17.77;;;13.60;;
34019;SDS011;20895;51.034;3.742;2023-04-24T06:07:17;26.63;;;15.65;;
34019;SDS011;20895;51.034;3.742;2023-04-24T06:09:43;27.10;;;14.65;;
34019;SDS011;20895;51.034;3.742;2023-04-24T06:12:08;23.77;;;15.77;;
34019;SDS011;20895;51.034;3.742;2023-04-24T06:14:33;20.42;;;12.77;;
34019;SDS011;20895;51.034;3.742;2023-04-24T06:16:59;20.23;;;13.88;;
34019;SDS011;20895;51.034;3.742;2023-04-24T06:19:25;25.27;;;14.27;;
34019;SDS011;20895;51.034;3.742;2023-04-24T06:21:50;25.65;;;14.05;;
34019;SDS011;20895;51.034;3.742;2023-04-24T06:24:15;21.73;;;14.75;;
34019;SDS011;20895;51.034;3.742;2023-04-24T06:26:41;22.08;;;12.98;;
34019;SDS011;20895;51.034;3.742;2023-04-24T06:29:06;20.50;;;13.95;;
34019;SDS011;20895;51.034;3.742;2023-04-24T06:31:32;26.35;;;14.05;;
34019;SDS011;20895;51.034;3.742;2023-04-24T06:34:01;21.00;;;13.40;;
34019;SDS011;20895;51.034;3.742;2023-04-24T06:36:27;19.60;;;12.93;;
34019;SDS011;20895;51.034;3.742;2023-04-24T06:38:52;24.55;;;15.55;;
34019;SDS011;20895;51.034;3.742;2023-04-24T06:41:18;21.10;;;11.52;;
34019;SDS011;20895;51.034;3.742;2023-04-24T06:43:43;13.05;;;5.75;;
34019;SDS011;20895;51.034;3.742;2023-04-24T06:46:08;21.65;;;10.57;;
34019;SDS011;20895;51.034;3.742;2023-04-24T06:48:34;20.13;;;9.77;;
34019;SDS011;20895;51.034;3.742;2023-04-24T06:50:59;19.77;;;11.48;;
34019;SDS011;20895;51.034;3.742;2023-04-24T06:53:24;18.35;;;11.93;;
34019;SDS011;20895;51.034;3.742;2023-04-24T06:55:50;19.00;;;11.18;;
34019;SDS011;20895;51.034;3.742;2023-04-24T06:58:15;16.15;;;11.40;;
34019;SDS011;20895;51.034;3.742;2023-04-24T07:00:40;20.58;;;12.40;;
34019;SDS011;20895;51.034;3.742;2023-04-24T07:03:06;22.90;;;11.43;;
34019;SDS011;20895;51.034;3.742;2023-04-24T07:05:31;22.50;;;11.90;;
34019;SDS011;20895;51.034;3.742;2023-04-24T07:07:58;21.20;;;10.70;;
34019;SDS011;20895;51.034;3.742;2023-04-24T07:10:24;19.05;;;10.00;;
34019;SDS011;20895;51.034;3.742;2023-04-24T07:12:50;18.65;;;9.30;;
34019;SDS011;20895;51.034;3.742;2023-04-24T07:15:16;15.13;;;9.07;;
34019;SDS011;20895;51.034;3.742;2023-04-24T07:17:41;15.70;;;10.57;;
34019;SDS011;20895;51.034;3.742;2023-04-24T07:20:10;17.83;;;10.10;;
34019;SDS011;20895;51.034;3.742;2023-04-24T07:22:36;15.65;;;6.90;;
34019;SDS011;20895;51.034;3.742;2023-04-24T07:25:05;11.70;;;7.57;;
34019;SDS011;20895;51.034;3.742;2023-04-24T07:27:31;14.25;;;7.93;;
34019;SDS011;20895;51.034;3.742;2023-04-24T07:29:56;16.08;;;8.07;;
34019;SDS011;20895;51.034;3.742;2023-04-24T07:32:21;16.58;;;8.95;;
34019;SDS011;20895;51.034;3.742;2023-04-24T07:34:46;18.77;;;7.45;;
34019;SDS011;20895;51.034;3.742;2023-04-24T07:37:12;17.45;;;7.82;;
34019;SDS011;20895;51.034;3.742;2023-04-24T07:39:37;18.50;;;8.48;;
34019;SDS011;20895;51.034;3.742;2023-04-24T07:42:02;13.38;;;7.75;;
34019;SDS011;20895;51.034;3.742;2023-04-24T07:44:28;14.27;;;7.05;;
34019;SDS011;20895;51.034;3.742;2023-04-24T07:46:54;18.27;;;6.97;;
34019;SDS011;20895;51.034;3.742;2023-04-24T07:49:19;15.43;;;7.88;;
34019;SDS011;20895;51.034;3.742;2023-04-24T07:51:44;17.88;;;7.57;;
34019;SDS011;20895;51.034;3.742;2023-04-24T07:54:10;18.35;;;8.23;;
34019;SDS011;20895;51.034;3.742;2023-04-24T07:56:35;16.25;;;6.50;;
34019;SDS011;20895;51.034;3.742;2023-04-24T07:59:03;14.52;;;8.13;;
34019;SDS011;20895;51.034;3.742;2023-04-24T08:01:29;12.85;;;6.60;;
34019;SDS011;20895;51.034;3.742;2023-04-24T08:03:54;9.50;;;6.15;;
34019;SDS011;20895;51.034;3.742;2023-04-24T08:06:19;14.07;;;5.82;;
34019;SDS011;20895;51.034;3.742;2023-04-24T08:08:45;13.18;;;5.55;;
34019;SDS011;20895;51.034;3.742;2023-04-24T08:11:10;13.05;;;5.75;;
34019;SDS011;20895;51.034;3.742;2023-04-24T08:13:35;12.13;;;6.15;;
34019;SDS011;20895;51.034;3.742;2023-04-24T08:16:01;9.80;;;5.68;;
34019;SDS011;20895;51.034;3.742;2023-04-24T08:18:26;11.48;;;4.95;;
34019;SDS011;20895;51.034;3.742;2023-04-24T08:20:51;14.10;;;4.80;;
34019;SDS011;20895;51.034;3.742;2023-04-24T08:23:16;11.13;;;5.25;;
34019;SDS011;20895;51.034;3.742;2023-04-24T08:25:42;11.90;;;5.47;;
34019;SDS011;20895;51.034;3.742;2023-04-24T08:28:08;12.32;;;5.20;;
34019;SDS011;20895;51.034;3.742;2023-04-24T08:30:33;12.30;;;4.78;;
34019;SDS011;20895;51.034;3.742;2023-04-24T08:32:59;10.93;;;4.10;;
34019;SDS011;20895;51.034;3.742;2023-04-24T08:35:24;10.95;;;3.85;;
34019;SDS011;20895;51.034;3.742;2023-04-24T08:37:49;10.65;;;3.25;;
34019;SDS011;20895;51.034;3.742;2023-04-24T08:40:15;14.27;;;3.25;;
34019;SDS011;20895;51.034;3.742;2023-04-24T08:42:42;9.98;;;4.22;;
34019;SDS011;20895;51.034;3.742;2023-04-24T08:45:08;8.50;;;4.28;;
34019;SDS011;20895;51.034;3.742;2023-04-24T08:47:33;7.72;;;3.78;;
34019;SDS011;20895;51.034;3.742;2023-04-24T08:50:00;6.65;;;3.28;;
34019;SDS011;20895;51.034;3.742;2023-04-24T08:52:27;11.27;;;4.65;;
34019;SDS011;20895;51.034;3.742;2023-04-24T08:54:53;10.75;;;3.25;;
34019;SDS011;20895;51.034;3.742;2023-04-24T08:57:18;8.93;;;3.90;;
34019;SDS011;20895;51.034;3.742;2023-04-24T08:59:44;13.30;;;4.10;;
34019;SDS011;20895;51.034;3.742;2023-04-24T09:02:10;6.47;;;3.15;;
34019;SDS011;20895;51.034;3.742;2023-04-24T09:04:35;8.65;;;4.03;;
34019;SDS011;20895;51.034;3.742;2023-04-24T09:07:01;8.38;;;3.72;;
34019;SDS011;20895;51.034;3.742;2023-04-24T09:09:28;11.20;;;5.80;;
34019;SDS011;20895;51.034;3.742;2023-04-24T09:11:54;8.35;;;4.32;;
34019;SDS011;20895;51.034;3.742;2023-04-24T09:14:20;7.13;;;3.95;;
34019;SDS011;20895;51.034;3.742;2023-04-24T09:16:46;7.03;;;3.88;;
34019;SDS011;20895;51.034;3.742;2023-04-24T09:19:11;9.40;;;4.60;;
34019;SDS011;20895;51.034;3.742;2023-04-24T09:21:36;9.45;;;4.45;;
34019;SDS011;20895;51.034;3.742;2023-04-24T09:24:03;8.32;;;4.82;;
34019;SDS011;20895;51.034;3.742;2023-04-24T09:26:29;15.77;;;4.55;;
34019;SDS011;20895;51.034;3.742;2023-04-24T09:28:56;13.75;;;4.88;;
34019;SDS011;20895;51.034;3.742;2023-04-24T09:31:21;9.02;;;3.80;;
34019;SDS011;20895;51.034;3.742;2023-04-24T09:36:31;11.13;;;4.00;;
34019;SDS011;20895;51.034;3.742;2023-04-24T09:39:01;6.85;;;3.88;;
34019;SDS011;20895;51.034;3.742;2023-04-24T09:41:27;10.18;;;4.13;;
34019;SDS011;20895;51.034;3.742;2023-04-24T09:43:53;10.98;;;4.20;;
34019;SDS011;20895;51.034;3.742;2023-04-24T09:46:19;7.85;;;3.42;;
34019;SDS011;20895;51.034;3.742;2023-04-24T09:48:46;11.02;;;5.13;;
34019;SDS011;20895;51.034;3.742;2023-04-24T09:51:12;7.40;;;3.42;;
34019;SDS011;20895;51.034;3.742;2023-04-24T09:53:37;7.38;;;3.25;;
34019;SDS011;20895;51.034;3.742;2023-04-24T09:56:10;9.18;;;4.13;;
34019;SDS011;20895;51.034;3.742;2023-04-24T09:58:37;8.70;;;3.78;;
34019;SDS011;20895;51.034;3.742;2023-04-24T10:01:02;4.90;;;3.08;;
34019;SDS011;20895;51.034;3.742;2023-04-24T10:03:31;13.00;;;3.88;;
34019;SDS011;20895;51.034;3.742;2023-04-24T10:06:00;9.68;;;3.90;;
34019;SDS011;20895;51.034;3.742;2023-04-24T10:08:26;8.05;;;3.63;;
34019;SDS011;20895;51.034;3.742;2023-04-24T10:10:51;10.30;;;3.95;;
34019;SDS011;20895;51.034;3.742;2023-04-24T10:13:17;9.80;;;4.50;;
34019;SDS011;20895;51.034;3.742;2023-04-24T10:15:42;8.40;;;3.95;;
34019;SDS011;20895;51.034;3.742;2023-04-24T10:18:08;8.88;;;3.80;;
34019;SDS011;20895;51.034;3.742;2023-04-24T10:20:35;4.45;;;2.83;;
34019;SDS011;20895;51.034;3.742;2023-04-24T10:23:00;5.25;;;2.78;;
34019;SDS011;20895;51.034;3.742;2023-04-24T10:25:26;5.45;;;2.72;;
34019;SDS011;20895;51.034;3.742;2023-04-24T10:27:52;9.60;;;3.70;;
34019;SDS011;20895;51.034;3.742;2023-04-24T10:30:18;8.50;;;3.47;;
34019;SDS011;20895;51.034;3.742;2023-04-24T10:32:44;7.18;;;3.72;;
34019;SDS011;20895;51.034;3.742;2023-04-24T10:35:10;7.78;;;4.60;;
34019;SDS011;20895;51.034;3.742;2023-04-24T10:37:46;4.90;;;3.25;;
34019;SDS011;20895;51.034;3.742;2023-04-24T10:40:16;8.40;;;3.35;;
34019;SDS011;20895;51.034;3.742;2023-04-24T10:42:42;8.35;;;3.22;;
34019;SDS011;20895;51.034;3.742;2023-04-24T10:45:20;7.32;;;2.92;;
34019;SDS011;20895;51.034;3.742;2023-04-24T10:48:04;7.22;;;3.67;;
34019;SDS011;20895;51.034;3.742;2023-04-24T10:50:44;7.85;;;4.22;;
34019;SDS011;20895;51.034;3.742;2023-04-24T10:53:17;6.18;;;3.55;;
34019;SDS011;20895;51.034;3.742;2023-04-24T10:55:43;8.43;;;3.80;;
34019;SDS011;20895;51.034;3.742;2023-04-24T10:58:09;4.35;;;2.60;;
34019;SDS011;20895;51.034;3.742;2023-04-24T11:00:39;6.65;;;3.17;;
34019;SDS011;20895;51.034;3.742;2023-04-24T11:03:05;7.68;;;3.55;;
34019;SDS011;20895;51.034;3.742;2023-04-24T11:05:50;7.18;;;3.47;;
34019;SDS011;20895;51.034;3.742;2023-04-24T11:08:23;5.63;;;3.22;;
34019;SDS011;20895;51.034;3.742;2023-04-24T11:11:33;10.52;;;3.45;;
34019;SDS011;20895;51.034;3.742;2023-04-24T11:16:30;8.45;;;3.38;;
34019;SDS011;20895;51.034;3.742;2023-04-24T11:19:06;9.10;;;3.17;;
34019;SDS011;20895;51.034;3.742;2023-04-24T11:21:41;8.07;;;3.80;;
34019;SDS011;20895;51.034;3.742;2023-04-24T11:26:51;8.20;;;3.80;;
34019;SDS011;20895;51.034;3.742;2023-04-24T11:29:17;6.75;;;3.17;;
34019;SDS011;20895;51.034;3.742;2023-04-24T11:31:44;7.38;;;3.50;;
34019;SDS011;20895;51.034;3.742;2023-04-24T11:34:18;6.55;;;2.88;;
34019;SDS011;20895;51.034;3.742;2023-04-24T11:36:44;9.35;;;3.25;;
34019;SDS011;20895;51.034;3.742;2023-04-24T11:39:10;7.60;;;3.53;;
34019;SDS011;20895;51.034;3.742;2023-04-24T11:41:36;4.40;;;2.40;;
34019;SDS011;20895;51.034;3.742;2023-04-24T11:44:02;5.28;;;2.65;;
34019;SDS011;20895;51.034;3.742;2023-04-24T11:46:29;3.60;;;2.40;;
34019;SDS011;20895;51.034;3.742;2023-04-24T11:48:55;6.75;;;2.70;;
34019;SDS011;20895;51.034;3.742;2023-04-24T11:51:21;13.27;;;2.85;;
34019;SDS011;20895;51.034;3.742;2023-04-24T11:53:47;6.70;;;2.40;;
34019;SDS011;20895;51.034;3.742;2023-04-24T11:56:13;4.65;;;2.30;;
34019;SDS011;20895;51.034;3.742;2023-04-24T11:58:42;4.78;;;1.95;;
34019;SDS011;20895;51.034;3.742;2023-04-24T12:01:07;7.63;;;2.72;;
34019;SDS011;20895;51.034;3.742;2023-04-24T12:03:32;3.85;;;2.00;;
34019;SDS011;20895;51.034;3.742;2023-04-24T12:06:04;4.60;;;2.38;;
34019;SDS011;20895;51.034;3.742;2023-04-24T12:08:31;6.00;;;2.75;;
34019;SDS011;20895;51.034;3.742;2023-04-24T12:10:57;8.75;;;2.28;;
34019;SDS011;20895;51.034;3.742;2023-04-24T12:13:25;5.25;;;2.47;;
34019;SDS011;20895;51.034;3.742;2023-04-24T12:15:50;5.82;;;2.17;;
34019;SDS011;20895;51.034;3.742;2023-04-24T12:18:15;5.22;;;2.03;;
34019;SDS011;20895;51.034;3.742;2023-04-24T12:20:42;4.43;;;2.17;;
34019;SDS011;20895;51.034;3.742;2023-04-24T12:23:07;3.33;;;1.70;;
34019;SDS011;20895;51.034;3.742;2023-04-24T12:25:32;5.82;;;1.80;;
34019;SDS011;20895;51.034;3.742;2023-04-24T12:30:30;7.35;;;1.85;;
34019;SDS011;20895;51.034;3.742;2023-04-24T12:32:57;4.38;;;1.70;;
34019;SDS011;20895;51.034;3.742;2023-04-24T12:35:23;3.67;;;1.83;;
34019;SDS011;20895;51.034;3.742;2023-04-24T12:37:48;6.75;;;1.80;;
34019;SDS011;20895;51.034;3.742;2023-04-24T12:40:14;5.85;;;1.92;;
34019;SDS011;20895;51.034;3.742;2023-04-24T12:42:47;4.60;;;1.42;;
34019;SDS011;20895;51.034;3.742;2023-04-24T12:45:13;5.65;;;1.73;;
34019;SDS011;20895;51.034;3.742;2023-04-24T12:47:39;6.53;;;2.72;;
34019;SDS011;20895;51.034;3.742;2023-04-24T12:50:05;4.55;;;1.88;;
34019;SDS011;20895;51.034;3.742;2023-04-24T12:52:31;3.58;;;1.52;;
34019;SDS011;20895;51.034;3.742;2023-04-24T12:54:57;2.65;;;1.25;;
34019;SDS011;20895;51.034;3.742;2023-04-24T12:57:24;6.25;;;1.88;;
34019;SDS011;20895;51.034;3.742;2023-04-24T12:59:49;6.22;;;1.60;;
34019;SDS011;20895;51.034;3.742;2023-04-24T13:02:15;6.95;;;2.00;;
34019;SDS011;20895;51.034;3.742;2023-04-24T13:04:46;2.15;;;1.40;;
34019;SDS011;20895;51.034;3.742;2023-04-24T13:07:11;4.15;;;1.42;;
34019;SDS011;20895;51.034;3.742;2023-04-24T13:09:37;5.60;;;1.50;;
34019;SDS011;20895;51.034;3.742;2023-04-24T13:12:03;4.05;;;1.40;;
34019;SDS011;20895;51.034;3.742;2023-04-24T13:14:28;5.43;;;1.50;;
34019;SDS011;20895;51.034;3.742;2023-04-24T13:16:53;4.35;;;1.33;;
34019;SDS011;20895;51.034;3.742;2023-04-24T13:19:18;3.58;;;1.30;;
34019;SDS011;20895;51.034;3.742;2023-04-24T13:21:44;4.40;;;1.48;;
34019;SDS011;20895;51.034;3.742;2023-04-24T13:24:09;5.40;;;1.45;;
34019;SDS011;20895;51.034;3.742;2023-04-24T13:26:35;2.80;;;1.17;;
34019;SDS011;20895;51.034;3.742;2023-04-24T13:29:00;5.82;;;1.58;;
34019;SDS011;20895;51.034;3.742;2023-04-24T13:31:25;2.17;;;1.35;;
34019;SDS011;20895;51.034;3.742;2023-04-24T13:33:51;4.75;;;1.20;;
34019;SDS011;20895;51.034;3.742;2023-04-24T13:36:16;4.68;;;1.30;;
34019;SDS011;20895;51.034;3.742;2023-04-24T13:38:44;4.40;;;1.00;;
34019;SDS011;20895;51.034;3.742;2023-04-24T13:41:09;4.18;;;1.17;;
34019;SDS011;20895;51.034;3.742;2023-04-24T13:43:35;2.60;;;1.00;;
34019;SDS011;20895;51.034;3.742;2023-04-24T13:46:00;3.92;;;0.93;;
34019;SDS011;20895;51.034;3.742;2023-04-24T13:48:27;5.47;;;1.10;;
34019;SDS011;20895;51.034;3.742;2023-04-24T13:50:53;3.20;;;1.30;;
34019;SDS011;20895;51.034;3.742;2023-04-24T13:53:18;2.08;;;1.10;;
34019;SDS011;20895;51.034;3.742;2023-04-24T13:55:43;5.80;;;1.30;;
34019;SDS011;20895;51.034;3.742;2023-04-24T13:58:08;4.35;;;1.20;;
34019;SDS011;20895;51.034;3.742;2023-04-24T14:00:34;3.20;;;1.30;;
34019;SDS011;20895;51.034;3.742;2023-04-24T14:02:59;4.57;;;1.50;;
34019;SDS011;20895;51.034;3.742;2023-04-24T14:05:24;5.53;;;2.42;;
34019;SDS011;20895;51.034;3.742;2023-04-24T14:07:50;2.60;;;1.00;;
34019;SDS011;20895;51.034;3.742;2023-04-24T14:10:15;5.75;;;1.30;;
34019;SDS011;20895;51.034;3.742;2023-04-24T14:12:41;3.30;;;1.13;;
34019;SDS011;20895;51.034;3.742;2023-04-24T14:15:06;3.67;;;1.20;;
34019;SDS011;20895;51.034;3.742;2023-04-24T14:17:32;2.78;;;1.45;;
34019;SDS011;20895;51.034;3.742;2023-04-24T14:19:57;3.00;;;0.95;;
34019;SDS011;20895;51.034;3.742;2023-04-24T14:22:24;3.80;;;1.60;;
34019;SDS011;20895;51.034;3.742;2023-04-24T14:24:50;2.67;;;1.02;;
34019;SDS011;20895;51.034;3.742;2023-04-24T14:27:15;2.53;;;1.27;;
34019;SDS011;20895;51.034;3.742;2023-04-24T14:29:40;3.10;;;1.10;;
34019;SDS011;20895;51.034;3.742;2023-04-24T14:32:05;3.42;;;0.93;;
34019;SDS011;20895;51.034;3.742;2023-04-24T14:34:31;5.38;;;1.63;;
34019;SDS011;20895;51.034;3.742;2023-04-24T14:36:56;4.10;;;0.90;;
34019;SDS011;20895;51.034;3.742;2023-04-24T14:39:21;2.72;;;0.88;;